createdAt,value
2019-04-21T00:00:35.482Z,1014.59
2019-04-21T00:01:38.771Z,1014.58
2019-04-21T00:02:38.092Z,1014.54
2019-04-21T00:03:40.697Z,1014.53
2019-04-21T00:04:46.879Z,1014.48
2019-04-21T00:05:57.140Z,1014.51
2019-04-21T00:06:58.789Z,1014.49
2019-04-21T00:08:03.635Z,1014.48
2019-04-21T00:08:56.493Z,1014.46
2019-04-21T00:10:59.453Z,1014.43
2019-04-21T00:11:55.606Z,1014.47
2019-04-21T00:12:52.286Z,1014.42
2019-04-21T00:13:46.799Z,1014.45
2019-04-21T00:14:47.146Z,1014.42
2019-04-21T00:15:40.654Z,1014.40
2019-04-21T00:16:44.367Z,1014.42
2019-04-21T00:17:36.811Z,1014.37
2019-04-21T00:18:42.578Z,1014.42
2019-04-21T00:19:38.563Z,1014.34
2019-04-21T00:20:41.426Z,1014.36
2019-04-21T00:21:43.336Z,1014.36
2019-04-21T00:22:47.753Z,1014.39
2019-04-21T00:23:55.245Z,1014.40
2019-04-21T00:24:50.155Z,1014.36
2019-04-21T00:25:47.887Z,1014.37
2019-04-21T00:26:55.364Z,1014.38
2019-04-21T00:27:50.385Z,1014.35
2019-04-21T00:28:59.238Z,1014.35
2019-04-21T00:29:51.875Z,1014.35
2019-04-21T00:30:58.081Z,1014.34
2019-04-21T00:31:51.426Z,1014.32
2019-04-21T00:32:50.227Z,1014.32
2019-04-21T00:33:39.856Z,1014.31
2019-04-21T00:34:36.385Z,1014.28
2019-04-21T00:35:45.295Z,1014.31
2019-04-21T00:36:47.565Z,1014.29
2019-04-21T00:37:54.663Z,1014.32
2019-04-21T00:39:09.625Z,1014.30
2019-04-21T00:40:02.236Z,1014.22
2019-04-21T00:41:02.554Z,1014.26
2019-04-21T00:41:57.711Z,1014.29
2019-04-21T00:42:58.535Z,1014.22
2019-04-21T00:43:51.906Z,1014.20
2019-04-21T00:44:56.615Z,1014.22
2019-04-21T00:45:49.142Z,1014.21
2019-04-21T00:46:53.179Z,1014.18
2019-04-21T00:48:02.339Z,1014.19
2019-04-21T00:48:57.442Z,1014.16
2019-04-21T00:50:00.274Z,1014.21
2019-04-21T00:51:12.630Z,1014.19
2019-04-21T00:52:11.438Z,1014.18
2019-04-21T00:53:02.253Z,1014.18
2019-04-21T00:54:05.759Z,1014.19
2019-04-21T00:55:10.570Z,1014.13
2019-04-21T00:56:03.263Z,1014.13
2019-04-21T00:57:05.371Z,1014.11
2019-04-21T00:58:03.484Z,1014.10
2019-04-21T00:58:59.934Z,1014.11
2019-04-21T01:00:00.913Z,1014.11
2019-04-21T01:00:57.047Z,1014.06
2019-04-21T01:01:53.862Z,1014.07
2019-04-21T01:03:04.629Z,1014.07
2019-04-21T01:04:06.646Z,1014.06
2019-04-21T01:05:06.173Z,1014.04
2019-04-21T01:05:56.120Z,1014.03
2019-04-21T01:07:05.292Z,1014.01
2019-04-21T01:08:01.409Z,1014.03
2019-04-21T01:08:59.552Z,1014.01
2019-04-21T01:09:54.558Z,1014.00
2019-04-21T01:10:51.474Z,1013.98
2019-04-21T01:12:01.285Z,1013.99
2019-04-21T01:13:04.000Z,1013.98
2019-04-21T01:14:05.586Z,1013.94
2019-04-21T01:15:04.676Z,1013.98
2019-04-21T01:15:59.423Z,1013.95
2019-04-21T01:16:51.671Z,1013.95
2019-04-21T01:17:56.053Z,1013.94
2019-04-21T01:19:03.585Z,1013.95
2019-04-21T01:19:55.997Z,1013.96
2019-04-21T01:20:38.747Z,1013.92
2019-04-21T01:21:38.856Z,1013.99
2019-04-21T01:22:38.841Z,1013.98
2019-04-21T01:23:40.176Z,1013.94
2019-04-21T01:24:43.055Z,1013.89
2019-04-21T01:25:44.882Z,1013.94
2019-04-21T01:26:47.723Z,1013.94
2019-04-21T01:27:54.142Z,1013.95
2019-04-21T01:28:58.365Z,1013.92
2019-04-21T01:29:59.743Z,1013.91
2019-04-21T01:30:56.883Z,1013.91
2019-04-21T01:32:06.245Z,1013.90
2019-04-21T01:33:00.085Z,1013.91
2019-04-21T01:34:03.071Z,1013.88
2019-04-21T01:35:02.717Z,1013.91
2019-04-21T01:35:58.085Z,1013.89
2019-04-21T01:37:01.463Z,1013.88
2019-04-21T01:38:04.960Z,1013.89
2019-04-21T01:39:02.166Z,1013.89
2019-04-21T01:40:02.528Z,1013.88
2019-04-21T01:41:21.354Z,1013.84
2019-04-21T01:41:58.378Z,1013.85
2019-04-21T01:42:55.690Z,1013.82
2019-04-21T01:43:56.885Z,1013.83
2019-04-21T01:45:02.334Z,1013.80
2019-04-21T01:46:04.651Z,1013.82
2019-04-21T01:46:53.272Z,1013.84
2019-04-21T01:47:57.510Z,1013.79
2019-04-21T01:48:58.018Z,1013.82
2019-04-21T01:49:50.157Z,1013.80
2019-04-21T01:50:55.479Z,1013.79
2019-04-21T01:52:10.059Z,1013.79
2019-04-21T01:53:02.109Z,1013.76
2019-04-21T01:54:05.158Z,1013.81
2019-04-21T01:55:00.232Z,1013.79
2019-04-21T01:56:00.574Z,1013.75
2019-04-21T01:57:01.627Z,1013.76
2019-04-21T01:58:00.425Z,1013.73
2019-04-21T01:58:51.752Z,1013.77
2019-04-21T01:59:53.005Z,1013.74
2019-04-21T02:00:56.782Z,1013.70
2019-04-21T02:02:02.281Z,1013.72
2019-04-21T02:03:19.233Z,1013.71
2019-04-21T02:04:00.051Z,1013.70
2019-04-21T02:05:01.120Z,1013.72
2019-04-21T02:06:09.749Z,1013.69
2019-04-21T02:07:04.307Z,1013.69
2019-04-21T02:08:01.114Z,1013.69
2019-04-21T02:08:53.220Z,1013.71
2019-04-21T02:10:09.171Z,1013.69
2019-04-21T02:11:05.202Z,1013.72
2019-04-21T02:12:01.312Z,1013.71
2019-04-21T02:13:03.611Z,1013.67
2019-04-21T02:14:10.201Z,1013.72
2019-04-21T02:15:08.013Z,1013.74
2019-04-21T02:16:06.816Z,1013.75
2019-04-21T02:17:09.935Z,1013.75
2019-04-21T02:17:59.696Z,1013.73
2019-04-21T02:18:59.135Z,1013.74
2019-04-21T02:19:56.211Z,1013.74
2019-04-21T02:20:55.381Z,1013.73
2019-04-21T02:21:55.283Z,1013.72
2019-04-21T02:24:07.068Z,1013.72
2019-04-21T02:25:11.017Z,1013.72
2019-04-21T02:26:05.017Z,1013.71
2019-04-21T02:27:07.126Z,1013.71
2019-04-21T02:28:06.163Z,1013.70
2019-04-21T02:29:10.115Z,1013.68
2019-04-21T02:30:16.398Z,1013.66
2019-04-21T02:31:22.773Z,1013.66
2019-04-21T02:32:31.509Z,1013.64
2019-04-21T02:33:32.419Z,1013.66
2019-04-21T02:35:20.841Z,1013.61
2019-04-21T02:37:28.470Z,1013.61
2019-04-21T02:40:12.873Z,1013.56
2019-04-21T02:41:31.145Z,1013.53
2019-04-21T02:42:09.696Z,1013.53
2019-04-21T02:45:20.885Z,1013.51
2019-04-21T02:46:35.293Z,1013.47
2019-04-21T02:47:19.122Z,1013.43
2019-04-21T02:49:22.848Z,1013.40
2019-04-21T02:50:21.265Z,1013.41
2019-04-21T02:52:27.437Z,1013.35
2019-04-21T02:53:18.408Z,1013.36
2019-04-21T02:56:17.987Z,1013.32
2019-04-21T02:58:16.066Z,1013.29
2019-04-21T02:59:15.065Z,1013.27
2019-04-21T03:00:18.746Z,1013.31
2019-04-21T03:01:23.871Z,1013.26
2019-04-21T03:02:17.241Z,1013.27
2019-04-21T03:03:15.041Z,1013.32
2019-04-21T03:05:24.352Z,1013.26
2019-04-21T03:06:15.334Z,1013.25
2019-04-21T03:08:14.354Z,1013.20
2019-04-21T03:09:18.280Z,1013.24
2019-04-21T03:10:18.249Z,1013.22
2019-04-21T03:13:26.639Z,1013.20
2019-04-21T03:14:25.155Z,1013.20
2019-04-21T03:16:22.884Z,1013.24
2019-04-21T03:17:22.381Z,1013.18
2019-04-21T03:18:15.010Z,1013.18
2019-04-21T03:19:17.638Z,1013.17
2019-04-21T03:20:16.984Z,1013.19
2019-04-21T03:21:15.831Z,1013.19
2019-04-21T03:23:18.970Z,1013.11
2019-04-21T03:24:24.725Z,1013.11
2019-04-21T03:25:25.126Z,1013.09
2019-04-21T03:26:28.606Z,1013.10
2019-04-21T03:28:22.672Z,1013.08
2019-04-21T03:29:20.338Z,1013.08
2019-04-21T03:30:33.308Z,1013.05
2019-04-21T03:31:39.459Z,1013.06
2019-04-21T03:34:44.364Z,1012.97
2019-04-21T03:35:53.714Z,1012.94
2019-04-21T03:36:42.896Z,1012.92
2019-04-21T03:38:19.136Z,1012.86
2019-04-21T03:39:07.704Z,1012.84
2019-04-21T03:40:15.195Z,1012.88
2019-04-21T03:42:27.175Z,1012.88
2019-04-21T03:43:21.348Z,1012.87
2019-04-21T03:44:22.928Z,1012.87
2019-04-21T03:45:25.092Z,1012.90
2019-04-21T03:46:20.722Z,1012.87
2019-04-21T03:47:22.921Z,1012.86
2019-04-21T03:48:24.237Z,1012.88
2019-04-21T03:49:29.887Z,1012.87
2019-04-21T03:50:13.409Z,1012.91
2019-04-21T03:51:23.149Z,1012.87
2019-04-21T03:53:18.572Z,1012.85
2019-04-21T03:54:15.626Z,1012.84
2019-04-21T03:55:46.841Z,1012.87
2019-04-21T03:56:45.358Z,1012.88
2019-04-21T03:57:43.694Z,1012.83
2019-04-21T03:58:26.025Z,1012.85
2019-04-21T03:59:14.211Z,1012.84
2019-04-21T04:00:34.659Z,1012.83
2019-04-21T04:02:26.334Z,1012.85
2019-04-21T04:05:31.313Z,1012.87
2019-04-21T04:07:22.921Z,1012.88
2019-04-21T04:08:39.608Z,1012.84
2019-04-21T04:12:13.395Z,1012.84
2019-04-21T04:13:34.000Z,1012.85
2019-04-21T04:15:24.422Z,1012.82
2019-04-21T04:16:19.621Z,1012.84
2019-04-21T04:17:18.346Z,1012.89
2019-04-21T04:18:28.000Z,1012.92
2019-04-21T04:19:18.609Z,1012.96
2019-04-21T04:22:19.428Z,1012.94
2019-04-21T04:23:20.647Z,1012.90
2019-04-21T04:24:24.075Z,1012.92
2019-04-21T04:26:26.247Z,1012.90
2019-04-21T04:27:33.660Z,1012.90
2019-04-21T04:28:19.495Z,1012.88
2019-04-21T04:29:20.396Z,1012.90
2019-04-21T04:30:25.324Z,1012.87
2019-04-21T04:32:25.187Z,1012.88
2019-04-21T04:33:30.398Z,1012.86
2019-04-21T04:34:21.834Z,1012.86
2019-04-21T04:35:25.913Z,1012.86
2019-04-21T04:39:36.252Z,1012.86
2019-04-21T04:40:26.727Z,1012.85
2019-04-21T04:43:24.917Z,1012.81
2019-04-21T04:44:24.875Z,1012.81
2019-04-21T04:46:22.308Z,1012.82
2019-04-21T04:48:19.734Z,1012.81
2019-04-21T04:49:40.122Z,1012.78
2019-04-21T04:50:19.763Z,1012.78
2019-04-21T04:51:25.202Z,1012.76
2019-04-21T04:53:31.208Z,1012.76
2019-04-21T04:54:31.588Z,1012.76
2019-04-21T04:55:26.226Z,1012.79
2019-04-21T04:56:20.596Z,1012.81
2019-04-21T04:58:35.554Z,1012.87
2019-04-21T05:00:28.151Z,1012.84
2019-04-21T05:02:29.865Z,1012.88
2019-04-21T05:03:27.186Z,1012.87
2019-04-21T05:04:30.473Z,1012.83
2019-04-21T05:06:34.509Z,1012.82
2019-04-21T05:07:29.813Z,1012.85
2019-04-21T05:08:33.790Z,1012.85
2019-04-21T05:10:31.111Z,1012.88
2019-04-21T05:11:30.487Z,1012.86
2019-04-21T05:12:17.530Z,1012.89
2019-04-21T05:13:26.559Z,1012.89
2019-04-21T05:16:36.223Z,1012.93
2019-04-21T05:18:24.372Z,1012.86
2019-04-21T05:19:34.158Z,1012.85
2019-04-21T05:20:20.451Z,1012.84
2019-04-21T05:21:30.169Z,1012.81
2019-04-21T05:23:14.430Z,1012.81
2019-04-21T05:24:13.701Z,1012.77
2019-04-21T05:25:08.366Z,1012.76
2019-04-21T05:26:06.676Z,1012.79
2019-04-21T05:27:07.335Z,1012.79
2019-04-21T05:28:04.847Z,1012.81
2019-04-21T05:29:01.836Z,1012.78
2019-04-21T05:30:17.761Z,1012.84
2019-04-21T05:31:19.779Z,1012.84
2019-04-21T05:32:13.244Z,1012.80
2019-04-21T05:33:18.778Z,1012.83
2019-04-21T05:34:26.910Z,1012.85
2019-04-21T05:35:16.924Z,1012.84
2019-04-21T05:36:13.210Z,1012.84
2019-04-21T05:37:18.783Z,1012.80
2019-04-21T05:38:11.675Z,1012.77
2019-04-21T05:39:08.931Z,1012.78
2019-04-21T05:40:10.649Z,1012.78
2019-04-21T05:41:06.523Z,1012.77
2019-04-21T05:42:02.539Z,1012.76
2019-04-21T05:43:20.208Z,1012.73
2019-04-21T05:44:13.258Z,1012.75
2019-04-21T05:45:24.194Z,1012.76
2019-04-21T05:46:13.720Z,1012.73
2019-04-21T05:47:35.517Z,1012.71
2019-04-21T05:48:37.885Z,1012.70
2019-04-21T05:49:15.383Z,1012.73
2019-04-21T05:50:12.151Z,1012.68
2019-04-21T05:51:09.006Z,1012.73
2019-04-21T05:52:08.117Z,1012.74
2019-04-21T05:54:22.920Z,1012.74
2019-04-21T05:55:16.808Z,1012.74
2019-04-21T05:56:17.357Z,1012.76
2019-04-21T05:57:17.160Z,1012.72
2019-04-21T05:58:13.153Z,1012.73
2019-04-21T05:59:12.144Z,1012.73
2019-04-21T06:00:33.470Z,1012.71
2019-04-21T06:01:23.911Z,1012.70
2019-04-21T06:02:24.295Z,1012.70
2019-04-21T06:03:18.346Z,1012.72
2019-04-21T06:04:34.467Z,1012.71
2019-04-21T06:06:20.089Z,1012.67
2019-04-21T06:07:18.935Z,1012.68
2019-04-21T06:08:23.473Z,1012.68
2019-04-21T06:09:19.050Z,1012.66
2019-04-21T06:10:14.095Z,1012.66
2019-04-21T06:11:17.911Z,1012.64
2019-04-21T06:12:16.138Z,1012.71
2019-04-21T06:13:27.507Z,1012.69
2019-04-21T06:14:16.824Z,1012.70
2019-04-21T06:15:14.033Z,1012.68
2019-04-21T06:16:17.817Z,1012.66
2019-04-21T06:17:25.290Z,1012.64
2019-04-21T06:18:22.116Z,1012.61
2019-04-21T06:19:23.637Z,1012.61
2019-04-21T06:20:20.657Z,1012.62
2019-04-21T06:21:16.542Z,1012.59
2019-04-21T06:22:14.853Z,1012.61
2019-04-21T06:23:21.018Z,1012.60
2019-04-21T06:24:15.997Z,1012.59
2019-04-21T06:25:41.027Z,1012.61
2019-04-21T06:26:47.905Z,1012.60
2019-04-21T06:27:23.921Z,1012.56
2019-04-21T06:28:22.694Z,1012.57
2019-04-21T06:29:15.230Z,1012.54
2019-04-21T06:30:19.633Z,1012.53
2019-04-21T06:31:19.971Z,1012.53
2019-04-21T06:32:37.443Z,1012.52
2019-04-21T06:33:21.024Z,1012.53
2019-04-21T06:34:16.660Z,1012.51
2019-04-21T06:35:36.018Z,1012.53
2019-04-21T06:37:40.407Z,1012.50
2019-04-21T06:38:28.470Z,1012.48
2019-04-21T06:40:30.538Z,1012.44
2019-04-21T06:41:26.482Z,1012.46
2019-04-21T06:42:14.677Z,1012.41
2019-04-21T06:44:14.906Z,1012.43
2019-04-21T06:45:18.576Z,1012.41
2019-04-21T06:46:25.625Z,1012.47
2019-04-21T06:47:33.519Z,1012.44
2019-04-21T06:48:25.892Z,1012.43
2019-04-21T06:49:17.214Z,1012.44
2019-04-21T06:50:22.719Z,1012.46
2019-04-21T06:51:22.436Z,1012.45
2019-04-21T06:52:44.882Z,1012.44
2019-04-21T06:53:23.784Z,1012.41
2019-04-21T06:54:22.001Z,1012.41
2019-04-21T06:55:22.839Z,1012.38
2019-04-21T06:56:24.021Z,1012.35
2019-04-21T06:57:21.809Z,1012.38
2019-04-21T06:58:19.692Z,1012.37
2019-04-21T06:59:19.190Z,1012.33
2019-04-21T07:00:19.592Z,1012.38
2019-04-21T07:01:26.450Z,1012.35
2019-04-21T07:02:39.974Z,1012.37
2019-04-21T07:03:30.942Z,1012.34
2019-04-21T07:05:20.398Z,1012.38
2019-04-21T07:06:23.430Z,1012.36
2019-04-21T07:07:19.735Z,1012.37
2019-04-21T07:08:31.148Z,1012.32
2019-04-21T07:09:31.407Z,1012.34
2019-04-21T07:10:22.070Z,1012.31
2019-04-21T07:11:18.771Z,1012.31
2019-04-21T07:12:18.671Z,1012.29
2019-04-21T07:13:21.324Z,1012.31
2019-04-21T07:15:25.191Z,1012.26
2019-04-21T07:16:19.216Z,1012.27
2019-04-21T07:17:24.642Z,1012.30
2019-04-21T07:18:19.176Z,1012.22
2019-04-21T07:19:31.914Z,1012.19
2019-04-21T07:20:17.258Z,1012.21
2019-04-21T07:21:23.525Z,1012.21
2019-04-21T07:22:24.679Z,1012.24
2019-04-21T07:23:26.032Z,1012.19
2019-04-21T07:24:29.164Z,1012.19
2019-04-21T07:25:22.082Z,1012.18
2019-04-21T07:26:20.311Z,1012.22
2019-04-21T07:27:23.932Z,1012.20
2019-04-21T07:28:27.115Z,1012.13
2019-04-21T07:29:21.989Z,1012.18
2019-04-21T07:30:24.576Z,1012.15
2019-04-21T07:31:27.714Z,1012.14
2019-04-21T07:32:22.116Z,1012.11
2019-04-21T07:33:41.296Z,1012.09
2019-04-21T07:34:28.758Z,1012.10
2019-04-21T07:35:22.171Z,1012.09
2019-04-21T07:36:32.362Z,1012.07
2019-04-21T07:37:20.387Z,1012.05
2019-04-21T07:38:24.701Z,1012.04
2019-04-21T07:39:18.112Z,1012.00
2019-04-21T07:40:15.155Z,1012.01
2019-04-21T07:41:15.934Z,1011.98
2019-04-21T07:42:18.692Z,1012.00
2019-04-21T07:43:18.370Z,1012.00
2019-04-21T07:44:13.629Z,1011.97
2019-04-21T07:45:21.218Z,1012.01
2019-04-21T07:46:17.345Z,1011.98
2019-04-21T07:47:20.185Z,1012.00
2019-04-21T07:48:19.070Z,1011.98
2019-04-21T07:49:19.210Z,1011.99
2019-04-21T07:50:24.802Z,1011.95
2019-04-21T07:51:25.203Z,1011.98
2019-04-21T07:52:25.666Z,1011.94
2019-04-21T07:53:27.720Z,1011.94
2019-04-21T07:54:34.117Z,1011.97
2019-04-21T07:56:08.800Z,1011.96
2019-04-21T07:57:17.078Z,1011.97
2019-04-21T07:58:24.334Z,1011.94
2019-04-21T07:59:34.270Z,1011.95
2019-04-21T08:01:27.431Z,1011.90
2019-04-21T08:02:23.400Z,1011.89
2019-04-21T08:03:19.423Z,1011.88
2019-04-21T08:04:44.809Z,1011.88
2019-04-21T08:05:47.129Z,1011.89
2019-04-21T08:06:31.923Z,1011.86
2019-04-21T08:07:24.486Z,1011.85
2019-04-21T08:08:20.893Z,1011.82
2019-04-21T08:09:18.246Z,1011.82
2019-04-21T08:10:24.230Z,1011.78
2019-04-21T08:11:21.080Z,1011.80
2019-04-21T08:12:16.227Z,1011.75
2019-04-21T08:13:32.779Z,1011.75
2019-04-21T08:14:24.957Z,1011.75
2019-04-21T08:16:25.693Z,1011.72
2019-04-21T08:17:16.444Z,1011.72
2019-04-21T08:18:21.048Z,1011.70
2019-04-21T08:19:32.208Z,1011.72
2019-04-21T08:20:18.471Z,1011.71
2019-04-21T08:21:20.632Z,1011.67
2019-04-21T08:22:25.675Z,1011.67
2019-04-21T08:23:25.387Z,1011.62
2019-04-21T08:24:19.735Z,1011.62
2019-04-21T08:25:19.340Z,1011.60
2019-04-21T08:26:27.673Z,1011.57
2019-04-21T08:27:25.715Z,1011.56
2019-04-21T08:28:26.401Z,1011.52
2019-04-21T08:29:40.874Z,1011.51
2019-04-21T08:30:28.814Z,1011.53
2019-04-21T08:31:46.405Z,1011.49
2019-04-21T08:32:26.533Z,1011.53
2019-04-21T08:33:32.481Z,1011.55
2019-04-21T08:35:48.590Z,1011.49
2019-04-21T08:36:28.507Z,1011.48
2019-04-21T08:37:24.854Z,1011.49
2019-04-21T08:38:20.066Z,1011.47
2019-04-21T08:39:19.545Z,1011.43
2019-04-21T08:40:31.719Z,1011.48
2019-04-21T08:41:28.162Z,1011.47
2019-04-21T08:42:27.066Z,1011.44
2019-04-21T08:43:32.021Z,1011.48
2019-04-21T08:44:26.214Z,1011.48
2019-04-21T08:45:28.240Z,1011.46
2019-04-21T08:46:25.648Z,1011.42
2019-04-21T08:47:25.566Z,1011.44
2019-04-21T08:48:25.410Z,1011.42
2019-04-21T08:49:22.285Z,1011.38
2019-04-21T08:50:20.923Z,1011.41
2019-04-21T08:51:28.512Z,1011.40
2019-04-21T08:52:44.343Z,1011.46
2019-04-21T08:53:24.956Z,1011.43
2019-04-21T08:55:24.933Z,1011.44
2019-04-21T08:56:34.353Z,1011.43
2019-04-21T08:57:33.284Z,1011.42
2019-04-21T08:58:30.994Z,1011.42
2019-04-21T08:59:28.921Z,1011.40
2019-04-21T09:00:26.021Z,1011.38
2019-04-21T09:01:33.327Z,1011.38
2019-04-21T09:02:29.508Z,1011.36
2019-04-21T09:03:21.360Z,1011.37
2019-04-21T09:04:24.488Z,1011.38
2019-04-21T09:05:23.432Z,1011.35
2019-04-21T09:06:40.249Z,1011.36
2019-04-21T09:07:35.899Z,1011.36
2019-04-21T09:08:27.689Z,1011.34
2019-04-21T09:09:22.381Z,1011.31
2019-04-21T09:10:24.354Z,1011.33
2019-04-21T09:11:26.184Z,1011.27
2019-04-21T09:12:22.597Z,1011.25
2019-04-21T09:13:24.759Z,1011.22
2019-04-21T09:14:28.849Z,1011.18
2019-04-21T09:15:25.250Z,1011.19
2019-04-21T09:16:20.813Z,1011.14
2019-04-21T09:17:21.712Z,1011.15
2019-04-21T09:18:18.565Z,1011.14
2019-04-21T09:19:35.285Z,1011.11
2019-04-21T09:20:29.183Z,1011.09
2019-04-21T09:21:28.178Z,1011.04
2019-04-21T09:22:24.453Z,1011.04
2019-04-21T09:23:25.656Z,1011.03
2019-04-21T09:24:26.675Z,1011.00
2019-04-21T09:25:26.974Z,1010.97
2019-04-21T09:26:28.207Z,1010.99
2019-04-21T09:27:21.842Z,1010.99
2019-04-21T09:28:19.894Z,1010.94
2019-04-21T09:29:15.997Z,1010.93
2019-04-21T09:30:06.954Z,1010.92
2019-04-21T09:31:07.127Z,1010.91
2019-04-21T09:32:12.477Z,1010.92
2019-04-21T09:33:07.468Z,1010.89
2019-04-21T09:34:08.392Z,1010.86
2019-04-21T09:35:10.745Z,1010.86
2019-04-21T09:36:11.322Z,1010.84
2019-04-21T09:37:23.559Z,1010.81
2019-04-21T09:38:16.220Z,1010.84
2019-04-21T09:39:12.992Z,1010.78
2019-04-21T09:40:06.853Z,1010.79
2019-04-21T09:41:12.509Z,1010.78
2019-04-21T09:42:06.813Z,1010.73
2019-04-21T09:43:10.340Z,1010.75
2019-04-21T09:44:15.063Z,1010.75
2019-04-21T09:45:10.025Z,1010.77
2019-04-21T09:46:08.339Z,1010.77
2019-04-21T09:47:08.810Z,1010.77
2019-04-21T09:48:13.361Z,1010.76
2019-04-21T09:49:12.121Z,1010.73
2019-04-21T09:50:08.503Z,1010.74
2019-04-21T09:51:08.589Z,1010.70
2019-04-21T09:52:13.783Z,1010.70
2019-04-21T09:53:16.836Z,1010.76
2019-04-21T09:54:12.436Z,1010.72
2019-04-21T09:55:14.328Z,1010.70
2019-04-21T09:56:14.172Z,1010.66
2019-04-21T09:57:18.302Z,1010.66
2019-04-21T09:58:18.131Z,1010.64
2019-04-21T09:59:16.523Z,1010.61
2019-04-21T10:00:13.096Z,1010.58
2019-04-21T10:01:19.775Z,1010.57
2019-04-21T10:02:16.089Z,1010.54
2019-04-21T10:03:11.964Z,1010.58
2019-04-21T10:04:08.160Z,1010.54
2019-04-21T10:05:08.271Z,1010.53
2019-04-21T10:06:08.722Z,1010.48
2019-04-21T10:07:09.033Z,1010.47
2019-04-21T10:08:08.401Z,1010.45
2019-04-21T10:09:13.866Z,1010.46
2019-04-21T10:10:08.526Z,1010.43
2019-04-21T10:11:09.860Z,1010.41
2019-04-21T10:12:09.795Z,1010.45
2019-04-21T10:13:08.710Z,1010.46
2019-04-21T10:14:09.749Z,1010.43
2019-04-21T10:15:08.834Z,1010.42
2019-04-21T10:16:08.895Z,1010.43
2019-04-21T10:17:08.960Z,1010.35
2019-04-21T10:18:09.019Z,1010.39
2019-04-21T10:19:09.081Z,1010.35
2019-04-21T10:20:09.540Z,1010.33
2019-04-21T10:21:09.699Z,1010.36
2019-04-21T10:22:10.479Z,1010.28
2019-04-21T10:23:09.329Z,1010.29
2019-04-21T10:24:10.499Z,1010.31
2019-04-21T10:25:10.468Z,1010.30
2019-04-21T10:26:10.478Z,1010.29
2019-04-21T10:27:12.202Z,1010.28
2019-04-21T10:28:10.834Z,1010.52
2019-04-21T10:29:19.740Z,1010.94
2019-04-21T10:30:09.999Z,1011.23
2019-04-21T10:31:11.010Z,1011.28
2019-04-21T10:32:11.262Z,1011.32
2019-04-21T10:33:10.379Z,1011.34
2019-04-21T10:34:11.407Z,1011.30
2019-04-21T10:35:10.953Z,1011.37
2019-04-21T10:36:11.044Z,1011.37
2019-04-21T10:37:11.210Z,1011.40
2019-04-21T10:38:19.825Z,1011.43
2019-04-21T10:39:11.499Z,1011.39
2019-04-21T10:40:11.633Z,1011.38
2019-04-21T10:41:11.732Z,1011.37
2019-04-21T10:42:11.283Z,1011.38
2019-04-21T10:43:12.014Z,1011.43
2019-04-21T10:44:11.443Z,1011.39
2019-04-21T10:45:10.955Z,1011.38
2019-04-21T10:46:10.851Z,1011.46
2019-04-21T10:47:11.138Z,1011.36
2019-04-21T10:48:11.000Z,1011.38
2019-04-21T10:49:11.021Z,1011.35
2019-04-21T10:50:11.105Z,1011.39
2019-04-21T10:51:11.157Z,1011.43
2019-04-21T10:52:11.225Z,1011.42
2019-04-21T10:53:11.301Z,1011.42
2019-04-21T10:54:11.678Z,1011.39
2019-04-21T10:55:32.167Z,1011.36
2019-04-21T10:56:17.998Z,1011.30
2019-04-21T10:57:12.549Z,1011.34
2019-04-21T10:58:11.643Z,1011.30
2019-04-21T10:59:12.094Z,1011.28
2019-04-21T11:00:12.608Z,1011.25
2019-04-21T11:01:12.737Z,1011.23
2019-04-21T11:02:12.774Z,1011.25
2019-04-21T11:03:12.993Z,1011.23
2019-04-21T11:04:17.231Z,1011.23
2019-04-21T11:05:12.546Z,1011.17
2019-04-21T11:06:12.666Z,1011.10
2019-04-21T11:07:17.580Z,1011.09
2019-04-21T11:08:22.713Z,1011.07
2019-04-21T11:09:13.730Z,1011.05
2019-04-21T11:10:13.947Z,1011.03
2019-04-21T11:11:12.556Z,1011.00
2019-04-21T11:12:13.570Z,1010.99
2019-04-21T11:13:12.698Z,1010.95
2019-04-21T11:14:13.455Z,1010.94
2019-04-21T11:15:12.856Z,1010.89
2019-04-21T11:16:13.177Z,1010.83
2019-04-21T11:17:14.257Z,1010.81
2019-04-21T11:18:13.054Z,1010.74
2019-04-21T11:19:13.784Z,1010.76
2019-04-21T11:20:13.197Z,1010.73
2019-04-21T11:21:13.346Z,1010.70
2019-04-21T11:22:14.636Z,1010.69
2019-04-21T11:23:14.230Z,1010.64
2019-04-21T11:24:14.335Z,1010.64
2019-04-21T11:25:13.561Z,1010.59
2019-04-21T11:26:13.979Z,1010.56
2019-04-21T11:27:14.996Z,1010.51
2019-04-21T11:28:14.450Z,1010.50
2019-04-21T11:29:14.937Z,1010.46
2019-04-21T11:30:13.911Z,1010.42
2019-04-21T11:31:15.358Z,1010.40
2019-04-21T11:32:14.774Z,1010.38
2019-04-21T11:33:15.353Z,1010.34
2019-04-21T11:34:15.392Z,1010.33
2019-04-21T11:35:15.061Z,1010.29
2019-04-21T11:36:15.502Z,1010.25
2019-04-21T11:37:14.460Z,1010.22
2019-04-21T11:38:18.963Z,1010.23
2019-04-21T11:39:25.671Z,1010.23
2019-04-21T11:40:18.005Z,1010.13
2019-04-21T11:41:15.927Z,1010.14
2019-04-21T11:42:15.558Z,1010.16
2019-04-21T11:43:15.715Z,1010.14
2019-04-21T11:44:16.219Z,1010.08
2019-04-21T11:45:14.980Z,1010.08
2019-04-21T11:46:16.263Z,1010.08
2019-04-21T11:47:16.358Z,1010.08
2019-04-21T11:48:16.517Z,1010.03
2019-04-21T11:49:15.810Z,1010.08
2019-04-21T11:50:15.334Z,1010.07
2019-04-21T11:51:15.473Z,1010.05
2019-04-21T11:52:16.547Z,1010.06
2019-04-21T11:53:16.770Z,1010.07
2019-04-21T11:54:16.977Z,1010.07
2019-04-21T11:55:16.615Z,1010.06
2019-04-21T11:56:16.848Z,1010.11
2019-04-21T11:57:22.742Z,1010.19
2019-04-21T11:58:16.055Z,1010.10
2019-04-21T11:59:15.975Z,1010.12
2019-04-21T12:00:16.043Z,1010.09
2019-04-21T12:01:16.116Z,1010.12
2019-04-21T12:02:17.261Z,1010.08
2019-04-21T12:03:17.374Z,1010.05
2019-04-21T12:04:17.898Z,1010.04
2019-04-21T12:05:17.336Z,1010.06
2019-04-21T12:06:17.449Z,1010.02
2019-04-21T12:07:17.547Z,1010.01
2019-04-21T12:08:24.958Z,1010.00
2019-04-21T12:09:16.951Z,1009.98
2019-04-21T12:10:17.689Z,1009.97
2019-04-21T12:11:17.751Z,1010.00
2019-04-21T12:12:17.042Z,1009.96
2019-04-21T12:13:18.217Z,1009.91
2019-04-21T12:14:18.311Z,1009.87
2019-04-21T12:15:17.107Z,1009.91
2019-04-21T12:16:17.196Z,1009.86
2019-04-21T12:17:18.339Z,1009.83
2019-04-21T12:18:17.847Z,1009.80
2019-04-21T12:19:18.652Z,1009.79
2019-04-21T12:20:18.776Z,1009.83
2019-04-21T12:21:17.529Z,1009.77
2019-04-21T12:22:22.180Z,1009.75
2019-04-21T12:23:18.398Z,1009.76
2019-04-21T12:24:17.742Z,1009.72
2019-04-21T12:25:18.833Z,1009.76
2019-04-21T12:26:18.067Z,1009.75
2019-04-21T12:27:18.193Z,1009.77
2019-04-21T12:28:18.024Z,1009.78
2019-04-21T12:29:18.912Z,1009.73
2019-04-21T12:30:18.165Z,1009.76
2019-04-21T12:31:18.235Z,1009.71
2019-04-21T12:32:18.309Z,1009.70
2019-04-21T12:33:18.377Z,1009.69
2019-04-21T12:34:19.465Z,1009.63
2019-04-21T12:35:19.685Z,1009.61
2019-04-21T12:36:19.820Z,1009.53
2019-04-21T12:37:19.235Z,1009.54
2019-04-21T12:38:29.892Z,1009.51
2019-04-21T12:39:18.835Z,1009.46
2019-04-21T12:40:18.874Z,1009.45
2019-04-21T12:41:20.118Z,1009.40
2019-04-21T12:42:19.021Z,1009.38
2019-04-21T12:43:19.086Z,1009.31
2019-04-21T12:44:20.187Z,1009.30
2019-04-21T12:45:19.321Z,1009.23
2019-04-21T12:46:20.034Z,1009.24
2019-04-21T12:47:19.639Z,1009.13
2019-04-21T12:48:20.104Z,1009.07
2019-04-21T12:49:20.104Z,1009.00
2019-04-21T12:50:19.586Z,1008.99
2019-04-21T12:51:19.791Z,1008.97
2019-04-21T12:52:19.887Z,1008.96
2019-04-21T12:53:21.215Z,1008.97
2019-04-21T12:54:19.872Z,1008.90
2019-04-21T12:55:23.245Z,1008.91
2019-04-21T12:56:20.014Z,1008.84
2019-04-21T12:57:21.331Z,1008.79
2019-04-21T12:58:21.367Z,1008.80
2019-04-21T12:59:21.193Z,1008.83
2019-04-21T13:00:20.740Z,1008.78
2019-04-21T13:01:20.960Z,1008.73
2019-04-21T13:02:20.444Z,1008.72
2019-04-21T13:03:23.334Z,1008.54
2019-04-21T13:04:21.765Z,1008.58
2019-04-21T13:05:21.864Z,1008.59
2019-04-21T13:06:21.369Z,1008.60
2019-04-21T13:07:21.618Z,1008.49
2019-04-21T13:08:21.762Z,1008.46
2019-04-21T13:09:22.234Z,1008.41
2019-04-21T13:10:22.154Z,1008.39
2019-04-21T13:11:21.383Z,1008.41
2019-04-21T13:12:21.158Z,1008.34